Time;durP1;ratioP1;P1;durP2;ratioP2;P2;SDS_P1;SDS_P2;PMS_P1;PMS_P2;Temp;Humidity;BMP_temperature;BMP_pressure;BME280_temperature;BME280_humidity;BME280_pressure;Samples;Min_cycle;Max_cycle;Signal;HPM_P1;HPM_P2
2022/01/20 00:01:38;;;;;;;19.85;1.65;;;;;;;;;;5046140;28;20373;-55
2022/01/20 00:04:13;;;;;;;14.27;1.77;;;;;;;;;;5067332;28;20052;-58
2022/01/20 00:07:26;;;;;;;10.98;1.60;;;;;;;;;;5084595;28;20049;-52
2022/01/20 00:26:44;;;;;;;11.40;1.25;;;;;;;;;;5020124;28;20049;-53
2022/01/20 00:29:25;;;;;;;6.15;1.42;;;;;;;;;;5027357;28;20049;-57
2022/01/20 00:32:05;;;;;;;19.38;1.40;;;;;;;;;;5034361;28;20056;-57
2022/01/20 00:35:03;;;;;;;16.40;1.50;;;;;;;;;;5082710;28;20040;-48
2022/01/20 00:37:21;;;;;;;5.90;1.20;;;;;;;;;;5077970;28;20052;-50
2022/01/20 00:39:48;;;;;;;17.77;1.58;;;;;;;;;;5085271;28;20053;-52
2022/01/20 00:42:15;;;;;;;10.05;1.30;;;;;;;;;;5062475;28;20104;-50
2022/01/20 00:44:43;;;;;;;7.38;1.00;;;;;;;;;;5080391;28;20049;-57
2022/01/20 00:47:10;;;;;;;15.38;1.70;;;;;;;;;;5053099;28;20057;-54
2022/01/20 00:49:38;;;;;;;11.93;1.38;;;;;;;;;;5067013;28;20060;-53
2022/01/20 00:52:04;;;;;;;8.25;1.50;;;;;;;;;;5061267;28;20456;-54
2022/01/20 00:54:31;;;;;;;14.10;1.70;;;;;;;;;;5062688;28;20073;-53
2022/01/20 00:56:58;;;;;;;10.00;1.13;;;;;;;;;;5058294;28;20057;-59
2022/01/20 00:59:25;;;;;;;6.90;1.10;;;;;;;;;;5063500;28;20063;-54
2022/01/20 01:01:54;;;;;;;7.10;1.38;;;;;;;;;;5057665;28;20059;-56
2022/01/20 01:04:21;;;;;;;15.45;1.80;;;;;;;;;;5063309;28;20064;-53
2022/01/20 01:09:34;;;;;;;10.65;1.20;;;;;;;;;;5015816;28;20053;-53
2022/01/20 01:12:04;;;;;;;6.57;0.85;;;;;;;;;;5060685;28;20157;-54
2022/01/20 01:14:34;;;;;;;6.00;1.10;;;;;;;;;;5068481;28;20049;-51
2022/01/20 01:20:03;;;;;;;11.25;0.80;;;;;;;;;;5060187;28;20057;-53
2022/01/20 01:22:30;;;;;;;13.48;1.27;;;;;;;;;;5027782;28;20067;-56
2022/01/20 01:24:58;;;;;;;15.15;0.88;;;;;;;;;;5063314;28;20130;-56
2022/01/20 01:27:26;;;;;;;15.40;1.20;;;;;;;;;;5059025;28;20056;-56
2022/01/20 01:30:13;;;;;;;;;;;;;;;;;;5083189;28;20057;-56
2022/01/20 01:32:48;;;;;;;3.63;0.65;;;;;;;;;;5060198;28;20362;-55
2022/01/20 01:35:15;;;;;;;6.30;1.23;;;;;;;;;;5082159;28;20097;-51
2022/01/20 01:40:28;;;;;;;11.23;1.20;;;;;;;;;;5083255;28;20149;-51
2022/01/20 01:42:55;;;;;;;6.78;0.98;;;;;;;;;;5065637;28;20438;-51
2022/01/20 01:45:27;;;;;;;16.77;1.55;;;;;;;;;;5096423;28;20094;-55
2022/01/20 01:47:58;;;;;;;14.93;1.50;;;;;;;;;;5082380;28;20106;-50
2022/01/20 01:50:25;;;;;;;11.45;1.20;;;;;;;;;;5077570;28;20044;-57
2022/01/20 01:52:52;;;;;;;7.30;0.85;;;;;;;;;;5082316;28;20139;-56
2022/01/20 01:55:19;;;;;;;5.50;1.00;;;;;;;;;;5077371;28;20143;-51
2022/01/20 01:57:47;;;;;;;15.60;1.20;;;;;;;;;;5065519;28;20084;-54
2022/01/20 02:00:14;;;;;;;5.87;0.80;;;;;;;;;;5047100;28;20075;-56
2022/01/20 02:02:42;;;;;;;4.93;0.60;;;;;;;;;;5036927;28;20052;-53
2022/01/20 02:05:13;;;;;;;8.90;0.88;;;;;;;;;;5077364;28;20056;-55
2022/01/20 02:18:44;;;;;;;8.75;1.20;;;;;;;;;;5082530;28;20048;-56
2022/01/20 02:21:12;;;;;;;8.63;1.05;;;;;;;;;;5059021;28;20052;-57
2022/01/20 02:23:39;;;;;;;5.57;1.00;;;;;;;;;;5065354;28;20055;-56
2022/01/20 02:26:06;;;;;;;7.68;0.85;;;;;;;;;;5054260;28;20041;-55
2022/01/20 02:28:32;;;;;;;12.10;1.33;;;;;;;;;;5045958;28;20197;-52
2022/01/20 02:30:59;;;;;;;8.80;1.08;;;;;;;;;;5049584;28;20068;-56
2022/01/20 02:33:27;;;;;;;8.02;1.13;;;;;;;;;;5065888;28;20073;-51
2022/01/20 02:35:55;;;;;;;3.97;0.75;;;;;;;;;;5060568;28;20071;-58
2022/01/20 02:38:29;;;;;;;11.37;1.10;;;;;;;;;;5084931;28;20060;-52
2022/01/20 02:46:24;;;;;;;10.55;1.02;;;;;;;;;;5065184;28;20513;-52
2022/01/20 02:48:51;;;;;;;17.55;1.38;;;;;;;;;;5082809;28;20128;-54
2022/01/20 02:51:17;;;;;;;11.90;1.10;;;;;;;;;;5054247;28;20045;-54
2022/01/20 02:53:45;;;;;;;8.10;0.68;;;;;;;;;;5061635;28;20053;-56
2022/01/20 02:56:12;;;;;;;8.32;1.38;;;;;;;;;;5042510;28;20053;-56
2022/01/20 02:58:39;;;;;;;6.82;0.85;;;;;;;;;;5049331;28;20122;-59
2022/01/20 03:01:06;;;;;;;17.48;1.17;;;;;;;;;;5063081;28;20052;-51
2022/01/20 03:03:34;;;;;;;11.48;1.42;;;;;;;;;;5048264;28;20130;-55
2022/01/20 03:06:00;;;;;;;11.03;1.03;;;;;;;;;;5049775;28;20080;-55
2022/01/20 03:08:27;;;;;;;5.20;0.75;;;;;;;;;;5061381;28;20374;-57
2022/01/20 03:10:55;;;;;;;8.80;1.17;;;;;;;;;;5085623;28;20114;-56
2022/01/20 03:13:21;;;;;;;8.10;0.90;;;;;;;;;;5070202;28;20080;-56
2022/01/20 03:15:48;;;;;;;6.20;0.93;;;;;;;;;;5085852;28;20288;-55
2022/01/20 03:18:15;;;;;;;7.72;1.30;;;;;;;;;;5079168;28;20121;-59
2022/01/20 03:20:42;;;;;;;6.57;0.93;;;;;;;;;;5085408;28;20063;-58
2022/01/20 03:23:08;;;;;;;7.25;0.95;;;;;;;;;;5079470;28;20071;-53
2022/01/20 03:25:36;;;;;;;7.22;1.02;;;;;;;;;;5085264;28;20048;-58
2022/01/20 03:28:04;;;;;;;5.97;0.98;;;;;;;;;;5051256;28;20048;-55
2022/01/20 03:30:31;;;;;;;12.90;1.40;;;;;;;;;;5068175;28;20105;-56
2022/01/20 03:32:58;;;;;;;10.73;1.35;;;;;;;;;;5078515;28;20145;-58
2022/01/20 03:35:25;;;;;;;15.85;1.20;;;;;;;;;;5053338;28;20049;-54
2022/01/20 03:37:52;;;;;;;4.82;0.88;;;;;;;;;;5076605;28;20056;-55
2022/01/20 03:40:20;;;;;;;18.60;1.33;;;;;;;;;;5068985;28;20056;-59
2022/01/20 03:42:47;;;;;;;15.45;1.42;;;;;;;;;;5079226;28;20055;-59
2022/01/20 03:45:16;;;;;;;14.20;1.00;;;;;;;;;;5068011;28;20040;-57
2022/01/20 03:47:42;;;;;;;;;;;;;;;;;;5068550;28;20049;-55
2022/01/20 03:50:59;;;;;;;12.18;1.30;;;;;;;;;;5063164;28;19936;-55
2022/01/20 03:52:57;;;;;;;6.55;1.05;;;;;;;;;;5046263;28;20061;-53
2022/01/20 03:55:23;;;;;;;14.18;1.13;;;;;;;;;;5042735;28;20053;-55
2022/01/20 03:57:50;;;;;;;5.82;0.80;;;;;;;;;;5048247;28;20045;-56
2022/01/20 04:00:18;;;;;;;9.60;0.82;;;;;;;;;;5042657;28;20075;-59
2022/01/20 04:02:45;;;;;;;6.00;0.88;;;;;;;;;;5047255;28;20091;-54
2022/01/20 04:05:12;;;;;;;9.25;0.82;;;;;;;;;;5030055;28;20072;-56
2022/01/20 04:07:38;;;;;;;6.05;0.85;;;;;;;;;;5064481;28;20045;-56
2022/01/20 04:10:05;;;;;;;14.57;1.15;;;;;;;;;;5063762;28;20072;-57
2022/01/20 04:12:31;;;;;;;3.55;0.73;;;;;;;;;;5070856;28;20139;-53
2022/01/20 04:15:06;;;;;;;8.65;0.68;;;;;;;;;;5062686;28;20137;-53
2022/01/20 04:17:34;;;;;;;5.45;0.60;;;;;;;;;;5067399;28;20053;-55
2022/01/20 04:20:00;;;;;;;3.75;0.50;;;;;;;;;;5052345;28;20053;-55
2022/01/20 04:22:28;;;;;;;4.28;0.60;;;;;;;;;;5047355;28;20056;-52
2022/01/20 04:24:56;;;;;;;9.43;0.98;;;;;;;;;;5042066;28;20048;-53
2022/01/20 04:27:22;;;;;;;4.75;0.60;;;;;;;;;;5062197;28;20052;-52
2022/01/20 04:29:49;;;;;;;6.35;0.70;;;;;;;;;;5061749;28;20142;-53
2022/01/20 04:32:15;;;;;;;3.22;0.43;;;;;;;;;;5066913;28;20131;-56
2022/01/20 04:34:44;;;;;;;2.95;0.35;;;;;;;;;;5079514;28;20052;-56
2022/01/20 04:37:12;;;;;;;6.00;0.63;;;;;;;;;;5067129;28;20063;-58
2022/01/20 04:39:45;;;;;;;2.35;0.40;;;;;;;;;;5067069;28;20056;-55
2022/01/20 04:42:11;;;;;;;3.53;0.40;;;;;;;;;;5059976;28;20057;-53
2022/01/20 04:44:43;;;;;;;7.43;0.88;;;;;;;;;;5066327;28;20071;-55
2022/01/20 04:47:22;;;;;;;6.72;0.85;;;;;;;;;;5067511;28;20064;-57
2022/01/20 04:58:04;;;;;;;7.72;0.75;;;;;;;;;;5084712;28;20040;-58
2022/01/20 05:00:30;;;;;;;8.27;1.05;;;;;;;;;;5084916;28;20060;-58
2022/01/20 05:02:57;;;;;;;8.52;0.95;;;;;;;;;;5041019;28;20080;-55
2022/01/20 05:05:27;;;;;;;3.53;0.55;;;;;;;;;;5062799;28;20059;-54
2022/01/20 05:07:57;;;;;;;5.97;0.70;;;;;;;;;;5041797;28;20076;-55
2022/01/20 05:10:23;;;;;;;8.32;1.02;;;;;;;;;;5047229;28;20475;-58
2022/01/20 05:13:05;;;;;;;8.70;1.00;;;;;;;;;;5044214;28;20102;-56
2022/01/20 05:15:35;;;;;;;9.90;1.08;;;;;;;;;;5066218;28;20143;-54
2022/01/20 05:18:01;;;;;;;8.23;0.98;;;;;;;;;;5045436;28;20057;-53
2022/01/20 05:20:29;;;;;;;8.05;0.65;;;;;;;;;;5046617;28;20053;-56
2022/01/20 05:22:56;;;;;;;10.90;1.17;;;;;;;;;;5045823;28;20094;-54
2022/01/20 05:25:24;;;;;;;10.25;1.25;;;;;;;;;;5066811;28;20052;-55
2022/01/20 05:27:50;;;;;;;7.88;0.80;;;;;;;;;;5060871;28;20458;-55
2022/01/20 05:30:17;;;;;;;2.28;0.50;;;;;;;;;;5066329;28;20083;-56
2022/01/20 05:32:43;;;;;;;9.15;1.00;;;;;;;;;;5060105;28;20132;-56
2022/01/20 05:35:10;;;;;;;10.10;1.17;;;;;;;;;;5067098;28;20114;-55
2022/01/20 05:37:38;;;;;;;12.43;1.27;;;;;;;;;;5062396;28;20075;-56
2022/01/20 05:40:05;;;;;;;11.20;1.23;;;;;;;;;;5069377;28;20056;-59
2022/01/20 05:42:32;;;;;;;13.82;1.45;;;;;;;;;;5079736;28;20295;-55
2022/01/20 05:44:59;;;;;;;8.20;0.93;;;;;;;;;;5066106;28;20056;-52
2022/01/20 05:47:29;;;;;;;11.75;1.63;;;;;;;;;;5064151;28;20456;-55
2022/01/20 05:49:55;;;;;;;13.75;1.20;;;;;;;;;;5062828;28;20057;-51
2022/01/20 05:52:22;;;;;;;11.40;1.27;;;;;;;;;;5065086;28;20071;-52
2022/01/20 05:54:51;;;;;;;15.57;1.70;;;;;;;;;;5074381;28;20041;-54
2022/01/20 05:57:18;;;;;;;10.13;1.63;;;;;;;;;;5083162;28;20123;-53
2022/01/20 05:59:44;;;;;;;11.63;1.38;;;;;;;;;;5076511;28;20114;-59
2022/01/20 06:02:24;;;;;;;14.70;2.40;;;;;;;;;;5082154;28;20052;-53
2022/01/20 06:04:51;;;;;;;6.82;1.38;;;;;;;;;;5077044;28;20253;-54
2022/01/20 06:07:19;;;;;;;12.98;1.60;;;;;;;;;;5068366;28;20052;-55
2022/01/20 06:09:46;;;;;;;16.23;2.40;;;;;;;;;;5060464;28;20048;-49
2022/01/20 06:12:14;;;;;;;11.02;1.77;;;;;;;;;;5066116;28;20045;-57
2022/01/20 06:14:41;;;;;;;18.02;1.70;;;;;;;;;;5062425;28;20078;-56
2022/01/20 06:17:07;;;;;;;13.57;1.17;;;;;;;;;;5067193;28;20078;-56
2022/01/20 06:19:34;;;;;;;12.23;1.67;;;;;;;;;;5078696;28;20040;-55
2022/01/20 06:22:00;;;;;;;15.45;1.42;;;;;;;;;;5066428;28;20048;-57
2022/01/20 06:24:28;;;;;;;7.88;1.40;;;;;;;;;;5060984;28;20071;-54
2022/01/20 06:26:55;;;;;;;14.07;1.50;;;;;;;;;;5081885;28;20052;-55
2022/01/20 06:29:25;;;;;;;6.47;0.90;;;;;;;;;;5060734;28;20306;-56
2022/01/20 06:31:51;;;;;;;16.45;1.98;;;;;;;;;;5070101;28;20056;-55
2022/01/20 06:34:18;;;;;;;11.18;1.75;;;;;;;;;;5063661;28;20102;-53
2022/01/20 06:36:45;;;;;;;15.38;1.45;;;;;;;;;;5087236;28;20053;-53
2022/01/20 06:39:13;;;;;;;10.13;1.70;;;;;;;;;;5087030;28;20060;-51
2022/01/20 06:41:39;;;;;;;12.73;1.63;;;;;;;;;;5062785;28;20056;-53
2022/01/20 06:44:06;;;;;;;10.20;1.23;;;;;;;;;;5070024;28;20144;-56
2022/01/20 06:46:36;;;;;;;13.05;1.45;;;;;;;;;;5065365;28;20052;-55
2022/01/20 06:49:02;;;;;;;10.25;1.23;;;;;;;;;;5070234;28;20057;-57
2022/01/20 06:51:29;;;;;;;14.30;1.75;;;;;;;;;;5080628;28;20338;-55
2022/01/20 06:53:56;;;;;;;14.13;1.63;;;;;;;;;;5072005;28;20056;-53
2022/01/20 06:56:24;;;;;;;9.10;1.30;;;;;;;;;;5082256;28;20048;-55
2022/01/20 06:58:51;;;;;;;18.05;1.63;;;;;;;;;;5070435;28;20147;-55
2022/01/20 07:01:18;;;;;;;10.13;0.90;;;;;;;;;;5063499;28;20071;-55
2022/01/20 07:03:47;;;;;;;14.15;0.82;;;;;;;;;;5086613;28;20101;-56
2022/01/20 07:06:16;;;;;;;5.50;0.90;;;;;;;;;;5064696;28;20097;-50
2022/01/20 07:08:42;;;;;;;12.60;1.10;;;;;;;;;;5073428;28;20040;-52
2022/01/20 07:11:09;;;;;;;5.43;1.10;;;;;;;;;;5067524;28;20121;-55
2022/01/20 07:13:36;;;;;;;8.45;0.98;;;;;;;;;;5071483;28;20071;-54
2022/01/20 07:16:03;;;;;;;9.82;0.93;;;;;;;;;;5063986;28;20076;-54
2022/01/20 07:18:31;;;;;;;10.95;1.90;;;;;;;;;;5085465;28;20048;-50
2022/01/20 07:20:58;;;;;;;7.65;1.13;;;;;;;;;;5085651;28;20053;-51
2022/01/20 07:23:25;;;;;;;5.37;0.90;;;;;;;;;;5070202;28;20059;-55
2022/01/20 07:25:52;;;;;;;9.70;0.90;;;;;;;;;;5068315;28;20302;-55
2022/01/20 07:28:18;;;;;;;15.00;1.15;;;;;;;;;;5063132;28;20851;-53
2022/01/20 07:30:45;;;;;;;4.63;1.00;;;;;;;;;;5084822;28;20064;-55
2022/01/20 07:33:12;;;;;;;10.27;0.80;;;;;;;;;;5078747;28;20060;-54
2022/01/20 07:35:38;;;;;;;8.30;1.23;;;;;;;;;;5084645;28;20063;-52
2022/01/20 07:38:07;;;;;;;11.82;1.10;;;;;;;;;;5058747;28;20202;-52
2022/01/20 07:40:33;;;;;;;3.05;0.70;;;;;;;;;;5047784;28;20391;-54
2022/01/20 07:43:00;;;;;;;9.02;1.08;;;;;;;;;;5050204;28;20060;-54
2022/01/20 07:45:28;;;;;;;14.50;1.40;;;;;;;;;;5068052;28;20064;-55
2022/01/20 07:47:54;;;;;;;6.60;0.85;;;;;;;;;;5060281;28;20056;-55
2022/01/20 07:50:21;;;;;;;14.32;1.20;;;;;;;;;;5084517;28;20056;-55
2022/01/20 07:52:47;;;;;;;8.55;1.58;;;;;;;;;;5061092;28;20106;-56
2022/01/20 07:55:16;;;;;;;13.65;1.25;;;;;;;;;;5067826;28;20056;-57
2022/01/20 07:57:42;;;;;;;8.52;1.30;;;;;;;;;;5062233;28;20064;-53
2022/01/20 08:00:09;;;;;;;8.05;1.08;;;;;;;;;;5068180;28;20048;-53
2022/01/20 08:02:36;;;;;;;8.45;1.15;;;;;;;;;;5065344;28;20086;-56
2022/01/20 08:05:04;;;;;;;5.05;0.77;;;;;;;;;;5079791;28;20044;-50
2022/01/20 08:07:31;;;;;;;6.60;1.02;;;;;;;;;;5070125;28;20048;-54
2022/01/20 08:09:58;;;;;;;8.82;1.35;;;;;;;;;;5063816;28;20135;-56
2022/01/20 08:12:26;;;;;;;5.95;0.88;;;;;;;;;;5068794;28;20059;-56
2022/01/20 08:14:53;;;;;;;10.50;1.23;;;;;;;;;;5064075;28;20056;-52
2022/01/20 08:17:20;;;;;;;10.52;1.08;;;;;;;;;;5085147;28;20052;-56
2022/01/20 08:19:47;;;;;;;11.02;1.20;;;;;;;;;;5063326;28;20106;-58
2022/01/20 08:22:13;;;;;;;8.70;0.98;;;;;;;;;;5070494;28;20061;-55
2022/01/20 08:24:41;;;;;;;3.92;0.55;;;;;;;;;;5063626;28;20060;-55
2022/01/20 08:27:08;;;;;;;7.72;1.30;;;;;;;;;;5085627;28;20106;-54
2022/01/20 08:29:36;;;;;;;2.40;0.80;;;;;;;;;;5064300;28;20059;-55
2022/01/20 08:32:02;;;;;;;5.33;1.47;;;;;;;;;;5086792;28;20117;-59
2022/01/20 08:34:30;;;;;;;12.95;1.00;;;;;;;;;;5063410;28;20294;-54
2022/01/20 08:36:59;;;;;;;8.23;1.35;;;;;;;;;;5072185;28;20063;-55
2022/01/20 08:39:44;;;;;;;10.15;1.45;;;;;;;;;;5071098;28;20119;-56
2022/01/20 08:42:11;;;;;;;7.53;1.00;;;;;;;;;;5068714;28;20102;-51
2022/01/20 08:44:39;;;;;;;8.90;1.30;;;;;;;;;;5079361;28;20731;-60
2022/01/20 08:47:14;;;;;;;14.00;1.55;;;;;;;;;;5070543;28;20053;-54
2022/01/20 08:49:41;;;;;;;7.90;1.48;;;;;;;;;;5061830;28;20565;-57
2022/01/20 08:52:08;;;;;;;8.85;1.20;;;;;;;;;;5067805;28;20039;-57
2022/01/20 08:54:34;;;;;;;6.53;1.20;;;;;;;;;;5067142;28;20130;-55
2022/01/20 08:57:01;;;;;;;12.35;1.38;;;;;;;;;;5062679;28;20052;-55
2022/01/20 08:59:27;;;;;;;9.52;1.02;;;;;;;;;;5070715;28;20080;-56
2022/01/20 09:01:55;;;;;;;14.85;1.05;;;;;;;;;;5079305;28;20109;-56
2022/01/20 09:04:22;;;;;;;13.70;1.50;;;;;;;;;;5067730;28;20052;-55
2022/01/20 09:06:48;;;;;;;12.70;1.10;;;;;;;;;;5078492;28;20048;-56
2022/01/20 09:09:17;;;;;;;5.97;0.82;;;;;;;;;;5068873;28;20052;-58
2022/01/20 09:11:52;;;;;;;10.13;1.25;;;;;;;;;;5078920;28;20058;-56
2022/01/20 09:17:06;;;;;;;7.97;0.98;;;;;;;;;;5074259;28;20048;-57
2022/01/20 09:19:33;;;;;;;1.33;0.43;;;;;;;;;;5068750;28;20068;-53
2022/01/20 09:21:59;;;;;;;5.78;0.90;;;;;;;;;;5061396;28;20057;-55
2022/01/20 09:24:26;;;;;;;15.70;0.98;;;;;;;;;;5069175;28;20076;-51
2022/01/20 09:26:53;;;;;;;10.82;1.02;;;;;;;;;;5060980;28;20059;-52
2022/01/20 09:29:20;;;;;;;5.05;0.85;;;;;;;;;;5066043;28;20080;-58
2022/01/20 09:31:49;;;;;;;8.27;1.02;;;;;;;;;;5078932;28;20052;-53
2022/01/20 09:34:17;;;;;;;2.78;1.00;;;;;;;;;;5084761;28;20049;-53
2022/01/20 09:36:45;;;;;;;10.37;1.20;;;;;;;;;;5062417;28;20060;-52
2022/01/20 09:39:11;;;;;;;3.60;0.93;;;;;;;;;;5068787;28;20386;-56
2022/01/20 09:41:38;;;;;;;9.57;0.98;;;;;;;;;;5080725;28;20056;-54
2022/01/20 09:44:05;;;;;;;3.92;0.75;;;;;;;;;;5066681;28;20052;-50
2022/01/20 09:46:32;;;;;;;5.68;0.88;;;;;;;;;;5086766;28;20052;-55
2022/01/20 09:48:58;;;;;;;4.88;0.90;;;;;;;;;;5063672;28;20079;-55
2022/01/20 09:51:26;;;;;;;10.05;1.20;;;;;;;;;;5067207;28;20056;-55
2022/01/20 09:53:53;;;;;;;4.75;0.70;;;;;;;;;;5059764;28;20067;-52
2022/01/20 09:56:20;;;;;;;2.50;0.50;;;;;;;;;;5081845;28;20098;-55
2022/01/20 09:58:47;;;;;;;11.95;1.10;;;;;;;;;;5060654;28;20129;-55
2022/01/20 10:01:15;;;;;;;9.18;1.23;;;;;;;;;;5067449;28;20095;-58
2022/01/20 10:03:46;;;;;;;4.68;0.75;;;;;;;;;;5064681;28;20068;-59
2022/01/20 10:06:14;;;;;;;4.18;0.85;;;;;;;;;;5069079;28;20087;-54
2022/01/20 10:08:42;;;;;;;9.15;1.05;;;;;;;;;;5063917;28;20045;-58
2022/01/20 10:11:10;;;;;;;9.50;1.55;;;;;;;;;;5085963;28;20052;-51
2022/01/20 10:13:37;;;;;;;8.95;1.38;;;;;;;;;;5059773;28;20053;-58
2022/01/20 10:16:07;;;;;;;12.07;1.00;;;;;;;;;;5067207;28;20048;-55
2022/01/20 10:18:35;;;;;;;9.55;1.15;;;;;;;;;;5062344;28;20149;-55
2022/01/20 10:21:03;;;;;;;4.68;1.10;;;;;;;;;;5066969;28;20060;-55
2022/01/20 10:23:34;;;;;;;19.35;1.90;;;;;;;;;;5053639;28;21124;-55
2022/01/20 10:29:01;;;;;;;10.95;1.27;;;;;;;;;;5043432;27;20541;-55
2022/01/20 10:31:32;;;;;;;7.60;1.05;;;;;;;;;;5058877;28;20055;-59
2022/01/20 10:33:59;;;;;;;28.83;6.53;;;;;;;;;;5035552;28;20049;-58
2022/01/20 10:36:26;;;;;;;7.10;1.73;;;;;;;;;;5040025;28;20085;-59
2022/01/20 10:38:54;;;;;;;4.90;1.23;;;;;;;;;;5035529;28;20057;-55
2022/01/20 10:41:27;;;;;;;11.57;1.38;;;;;;;;;;5040290;28;20394;-58
2022/01/20 10:44:01;;;;;;;3.67;0.90;;;;;;;;;;5042575;28;20045;-60
2022/01/20 10:46:45;;;;;;;10.85;1.23;;;;;;;;;;5055456;28;20065;-60
2022/01/20 10:49:13;;;;;;;7.78;1.17;;;;;;;;;;5036343;28;20068;-57
2022/01/20 10:51:39;;;;;;;7.10;1.10;;;;;;;;;;5040071;28;20071;-54
2022/01/20 10:54:07;;;;;;;18.05;1.88;;;;;;;;;;5040669;28;20084;-57
2022/01/20 10:56:37;;;;;;;6.83;0.90;;;;;;;;;;5034706;28;20083;-53
2022/01/20 10:59:08;;;;;;;5.25;0.80;;;;;;;;;;5041040;28;20570;-56
2022/01/20 11:01:35;;;;;;;12.50;1.48;;;;;;;;;;5033928;28;20057;-57
2022/01/20 11:04:03;;;;;;;6.45;1.23;;;;;;;;;;5040281;28;20068;-55
2022/01/20 11:06:36;;;;;;;10.13;1.10;;;;;;;;;;5050596;28;20057;-54
2022/01/20 11:09:04;;;;;;;16.50;1.33;;;;;;;;;;5056601;28;20056;-62
2022/01/20 11:11:30;;;;;;;14.57;1.80;;;;;;;;;;5034303;28;20064;-60
2022/01/20 11:13:57;;;;;;;4.32;0.88;;;;;;;;;;5040367;28;20076;-58
2022/01/20 11:16:25;;;;;;;12.52;1.27;;;;;;;;;;5033575;28;20064;-57
2022/01/20 11:18:51;;;;;;;7.53;1.10;;;;;;;;;;5039354;28;20080;-56
2022/01/20 11:21:23;;;;;;;8.13;1.10;;;;;;;;;;5035007;28;20049;-56
2022/01/20 11:23:49;;;;;;;6.57;0.90;;;;;;;;;;5038508;28;20408;-58
2022/01/20 11:26:18;;;;;;;13.00;1.60;;;;;;;;;;5033774;28;20095;-58
2022/01/20 11:28:57;;;;;;;11.10;1.25;;;;;;;;;;5039600;28;20049;-57
2022/01/20 11:31:30;;;;;;;6.88;0.80;;;;;;;;;;5034645;28;20144;-53
2022/01/20 11:33:57;;;;;;;10.75;0.77;;;;;;;;;;5040284;28;20060;-56
2022/01/20 11:36:24;;;;;;;9.68;1.02;;;;;;;;;;5035864;28;20554;-57
2022/01/20 11:38:54;;;;;;;9.02;1.35;;;;;;;;;;5034022;28;20057;-56
2022/01/20 11:41:22;;;;;;;9.02;1.08;;;;;;;;;;5019410;28;20164;-55
2022/01/20 11:43:49;;;;;;;9.52;1.63;;;;;;;;;;5026009;28;20061;-60
2022/01/20 11:46:18;;;;;;;13.50;1.27;;;;;;;;;;5043822;28;20049;-57
2022/01/20 11:48:54;;;;;;;8.07;1.25;;;;;;;;;;5021574;28;20145;-59
2022/01/20 11:51:21;;;;;;;8.88;0.98;;;;;;;;;;5026515;28;20056;-58
2022/01/20 11:53:55;;;;;;;5.43;0.98;;;;;;;;;;5020180;28;20160;-57
2022/01/20 11:56:28;;;;;;;3.35;0.70;;;;;;;;;;5024343;28;20061;-60
2022/01/20 11:58:55;;;;;;;8.23;0.80;;;;;;;;;;5022212;28;20131;-59
2022/01/20 12:01:21;;;;;;;8.25;0.73;;;;;;;;;;5025898;28;20053;-58
2022/01/20 12:03:50;;;;;;;6.65;1.17;;;;;;;;;;5019239;28;20068;-56
2022/01/20 12:06:23;;;;;;;3.92;0.90;;;;;;;;;;5024676;28;20057;-59
2022/01/20 12:08:53;;;;;;;14.88;1.15;;;;;;;;;;5016736;28;20261;-58
2022/01/20 12:11:20;;;;;;;9.80;1.30;;;;;;;;;;5025800;28;20063;-59
2022/01/20 12:13:47;;;;;;;3.78;0.75;;;;;;;;;;5020986;28;20060;-61
2022/01/20 12:16:20;;;;;;;6.18;0.75;;;;;;;;;;5027784;28;20053;-61
2022/01/20 12:18:49;;;;;;;9.68;1.33;;;;;;;;;;5022055;28;20061;-62
2022/01/20 12:21:16;;;;;;;13.02;1.25;;;;;;;;;;5042566;28;20495;-57
2022/01/20 12:23:45;;;;;;;8.13;1.10;;;;;;;;;;5003443;28;20064;-57
2022/01/20 12:26:12;;;;;;;12.63;1.10;;;;;;;;;;5025074;28;20057;-53
2022/01/20 12:28:38;;;;;;;7.45;1.08;;;;;;;;;;5020497;28;20060;-55
2022/01/20 12:31:06;;;;;;;7.90;1.25;;;;;;;;;;5025941;28;20053;-61
2022/01/20 12:33:35;;;;;;;3.65;0.80;;;;;;;;;;5018615;28;20057;-58
2022/01/20 12:36:04;;;;;;;7.38;0.95;;;;;;;;;;5025586;28;20056;-54
2022/01/20 12:38:33;;;;;;;4.88;1.00;;;;;;;;;;5020963;28;20076;-58
2022/01/20 12:40:59;;;;;;;;;;;;;;;;;;5040683;28;20057;-57
2022/01/20 12:43:35;;;;;;;7.10;0.70;;;;;;;;;;5023037;28;20018;-58
2022/01/20 12:46:02;;;;;;;4.80;0.88;;;;;;;;;;5036139;28;20053;-59
2022/01/20 12:48:28;;;;;;;10.68;1.55;;;;;;;;;;5024622;28;20053;-58
2022/01/20 12:50:59;;;;;;;9.85;0.90;;;;;;;;;;5009370;28;20127;-54
2022/01/20 12:53:36;;;;;;;10.05;0.90;;;;;;;;;;5025577;28;20041;-58
2022/01/20 12:56:06;;;;;;;11.57;1.17;;;;;;;;;;5019235;28;20049;-55
2022/01/20 12:58:32;;;;;;;7.00;1.02;;;;;;;;;;5023376;28;20088;-55
2022/01/20 13:01:01;;;;;;;10.95;1.33;;;;;;;;;;5020449;28;20116;-55
2022/01/20 13:03:35;;;;;;;9.75;1.15;;;;;;;;;;5023304;28;20053;-55
2022/01/20 13:06:02;;;;;;;9.05;0.80;;;;;;;;;;5019780;28;20053;-57
2022/01/20 13:08:32;;;;;;;11.07;1.15;;;;;;;;;;5039883;28;20077;-60
2022/01/20 13:11:02;;;;;;;7.25;1.65;;;;;;;;;;5019099;28;20080;-61
2022/01/20 13:13:29;;;;;;;12.40;1.25;;;;;;;;;;5024581;28;20050;-61
2022/01/20 13:15:57;;;;;;;3.05;0.80;;;;;;;;;;5019455;28;20053;-62
2022/01/20 13:18:25;;;;;;;7.43;0.88;;;;;;;;;;5024634;28;20072;-60
2022/01/20 13:20:54;;;;;;;4.07;0.93;;;;;;;;;;5017460;28;20045;-58
2022/01/20 13:26:06;;;;;;;10.23;1.00;;;;;;;;;;5035003;28;20487;-62
2022/01/20 13:28:32;;;;;;;6.55;1.13;;;;;;;;;;5023810;28;20089;-61
2022/01/20 13:30:59;;;;;;;9.65;2.00;;;;;;;;;;5016696;28;20060;-60
2022/01/20 13:33:27;;;;;;;4.60;0.98;;;;;;;;;;5023447;28;20362;-61
2022/01/20 13:36:01;;;;;;;;;;;;;;;;;;5019422;28;20064;-57
2022/01/20 13:38:31;;;;;;;12.00;1.05;;;;;;;;;;5025574;28;20060;-56
2022/01/20 13:41:06;;;;;;;5.43;1.00;;;;;;;;;;5024748;28;20064;-58
2022/01/20 13:46:38;;;;;;;12.82;1.55;;;;;;;;;;5038431;28;20052;-60
2022/01/20 13:49:13;;;;;;;14.38;1.15;;;;;;;;;;4967997;28;20141;-58
2022/01/20 13:51:39;;;;;;;7.53;1.05;;;;;;;;;;5027307;28;20049;-60
2022/01/20 13:54:06;;;;;;;7.68;0.93;;;;;;;;;;5016126;28;20064;-58
2022/01/20 13:56:33;;;;;;;12.55;2.17;;;;;;;;;;5020004;28;20085;-61
2022/01/20 13:59:06;;;;;;;10.75;1.67;;;;;;;;;;5024448;28;20049;-62
2022/01/20 14:01:33;;;;;;;7.45;1.08;;;;;;;;;;5025043;28;20045;-56
2022/01/20 14:03:59;;;;;;;11.38;1.80;;;;;;;;;;5008975;28;20511;-57
2022/01/20 14:06:32;;;;;;;18.77;2.88;;;;;;;;;;5023160;28;20103;-58
2022/01/20 14:08:59;;;;;;;10.43;1.65;;;;;;;;;;5016949;28;20086;-57
2022/01/20 14:11:26;;;;;;;10.45;1.40;;;;;;;;;;5023924;28;20057;-59
2022/01/20 14:13:52;;;;;;;9.25;0.95;;;;;;;;;;5016168;28;20054;-55
2022/01/20 14:16:19;;;;;;;9.30;1.25;;;;;;;;;;5023786;28;20049;-56
2022/01/20 14:18:47;;;;;;;9.23;1.10;;;;;;;;;;5018594;28;20207;-58
2022/01/20 14:21:14;;;;;;;13.93;1.33;;;;;;;;;;5022177;28;20061;-56
2022/01/20 14:23:43;;;;;;;4.57;0.90;;;;;;;;;;5036812;28;20059;-57
2022/01/20 14:26:13;;;;;;;7.70;1.08;;;;;;;;;;5024523;28;20053;-57
2022/01/20 14:28:39;;;;;;;11.88;1.80;;;;;;;;;;5018343;28;20064;-54
2022/01/20 14:31:06;;;;;;;9.40;1.30;;;;;;;;;;5023067;28;20053;-54
2022/01/20 14:33:33;;;;;;;6.50;1.00;;;;;;;;;;5016998;28;20038;-60
2022/01/20 14:36:00;;;;;;;12.18;1.42;;;;;;;;;;5022589;28;20070;-56
2022/01/20 14:38:28;;;;;;;10.03;1.50;;;;;;;;;;5016327;28;20103;-55
2022/01/20 14:40:56;;;;;;;9.20;0.95;;;;;;;;;;5022015;28;20575;-57
2022/01/20 14:43:23;;;;;;;6.55;1.20;;;;;;;;;;5018760;28;20107;-58
2022/01/20 14:45:52;;;;;;;6.63;1.17;;;;;;;;;;5024162;28;20057;-56
2022/01/20 14:48:18;;;;;;;6.78;1.10;;;;;;;;;;5023382;28;20056;-55
2022/01/20 14:50:45;;;;;;;12.48;1.27;;;;;;;;;;5019036;28;20060;-60
2022/01/20 14:53:12;;;;;;;5.47;1.00;;;;;;;;;;5022411;28;20058;-60
2022/01/20 14:55:38;;;;;;;6.97;0.82;;;;;;;;;;5019449;28;20045;-60
2022/01/20 14:58:06;;;;;;;8.73;1.02;;;;;;;;;;5023388;28;20081;-57
2022/01/20 15:00:33;;;;;;;5.23;1.13;;;;;;;;;;5032130;28;20119;-57
2022/01/20 15:02:59;;;;;;;16.25;1.92;;;;;;;;;;5023768;28;20308;-61
2022/01/20 15:05:26;;;;;;;8.35;1.10;;;;;;;;;;5017414;28;20054;-59
2022/01/20 15:07:53;;;;;;;7.90;1.52;;;;;;;;;;5024593;28;20139;-57
2022/01/20 15:10:19;;;;;;;7.25;0.90;;;;;;;;;;5018275;28;20052;-58
2022/01/20 15:12:49;;;;;;;7.28;1.20;;;;;;;;;;5023696;28;20061;-60
2022/01/20 15:15:24;;;;;;;9.50;1.55;;;;;;;;;;5020692;28;20099;-61
2022/01/20 15:17:52;;;;;;;10.45;1.15;;;;;;;;;;5030874;28;20057;-63
2022/01/20 15:20:19;;;;;;;6.10;1.27;;;;;;;;;;5021660;28;20057;-53
2022/01/20 15:22:45;;;;;;;11.77;1.80;;;;;;;;;;5009794;28;20061;-61
2022/01/20 15:25:12;;;;;;;20.70;2.25;;;;;;;;;;5021517;28;20068;-58
2022/01/20 15:27:39;;;;;;;10.98;1.60;;;;;;;;;;5026787;28;20058;-58
2022/01/20 15:30:07;;;;;;;10.60;1.05;;;;;;;;;;5017015;28;20053;-60
2022/01/20 15:32:33;;;;;;;8.70;1.38;;;;;;;;;;5039991;28;20057;-61
2022/01/20 15:35:02;;;;;;;8.43;1.65;;;;;;;;;;5027224;28;20053;-61
2022/01/20 15:37:28;;;;;;;10.15;1.38;;;;;;;;;;5027435;28;20061;-58
2022/01/20 15:39:55;;;;;;;7.90;1.10;;;;;;;;;;5044319;28;20088;-57
2022/01/20 15:42:21;;;;;;;8.90;1.88;;;;;;;;;;5031554;28;20150;-59
2022/01/20 15:44:50;;;;;;;5.45;1.33;;;;;;;;;;5046412;28;20052;-57
2022/01/20 15:47:18;;;;;;;6.22;1.10;;;;;;;;;;5040136;28;20057;-58